sensor_id;sensor_type;location;lat;lon;timestamp;P1;durP1;ratioP1;P2;durP2;ratioP2
74543;SDS011;63016;55.030;38.710;2023-08-06T00:00:04;9.27;;;3.55;;
74543;SDS011;63016;55.030;38.710;2023-08-06T00:02:30;10.15;;;3.53;;
74543;SDS011;63016;55.030;38.710;2023-08-06T00:04:56;9.35;;;3.78;;
74543;SDS011;63016;55.030;38.710;2023-08-06T00:07:21;4.22;;;3.17;;
74543;SDS011;63016;55.030;38.710;2023-08-06T00:09:47;14.35;;;4.07;;
74543;SDS011;63016;55.030;38.710;2023-08-06T00:12:12;4.68;;;3.55;;
74543;SDS011;63016;55.030;38.710;2023-08-06T00:14:38;6.88;;;3.25;;
74543;SDS011;63016;55.030;38.710;2023-08-06T00:17:03;11.40;;;4.07;;
74543;SDS011;63016;55.030;38.710;2023-08-06T00:19:30;8.55;;;3.70;;
74543;SDS011;63016;55.030;38.710;2023-08-06T00:21:56;6.78;;;3.72;;
74543;SDS011;63016;55.030;38.710;2023-08-06T00:24:21;6.22;;;3.60;;
74543;SDS011;63016;55.030;38.710;2023-08-06T00:26:47;5.85;;;3.00;;
74543;SDS011;63016;55.030;38.710;2023-08-06T00:29:12;4.60;;;3.28;;
74543;SDS011;63016;55.030;38.710;2023-08-06T00:31:38;4.72;;;3.13;;
74543;SDS011;63016;55.030;38.710;2023-08-06T00:34:03;6.00;;;3.40;;
74543;SDS011;63016;55.030;38.710;2023-08-06T00:36:29;6.60;;;4.00;;
74543;SDS011;63016;55.030;38.710;2023-08-06T00:38:54;6.15;;;4.15;;
74543;SDS011;63016;55.030;38.710;2023-08-06T00:41:20;6.90;;;3.60;;
74543;SDS011;63016;55.030;38.710;2023-08-06T00:43:46;4.30;;;3.80;;
74543;SDS011;63016;55.030;38.710;2023-08-06T00:46:12;5.07;;;3.65;;
74543;SDS011;63016;55.030;38.710;2023-08-06T00:48:38;5.40;;;3.40;;
74543;SDS011;63016;55.030;38.710;2023-08-06T00:51:04;4.00;;;3.33;;
74543;SDS011;63016;55.030;38.710;2023-08-06T00:53:30;4.70;;;3.30;;
74543;SDS011;63016;55.030;38.710;2023-08-06T00:55:56;3.35;;;3.00;;
74543;SDS011;63016;55.030;38.710;2023-08-06T00:58:22;5.75;;;3.30;;
74543;SDS011;63016;55.030;38.710;2023-08-06T01:00:47;4.80;;;3.60;;
74543;SDS011;63016;55.030;38.710;2023-08-06T01:03:13;4.78;;;3.30;;
74543;SDS011;63016;55.030;38.710;2023-08-06T01:05:38;6.03;;;3.83;;
74543;SDS011;63016;55.030;38.710;2023-08-06T01:16:01;4.53;;;3.65;;
74543;SDS011;63016;55.030;38.710;2023-08-06T01:18:28;6.03;;;3.83;;
74543;SDS011;63016;55.030;38.710;2023-08-06T01:20:53;4.35;;;3.90;;
74543;SDS011;63016;55.030;38.710;2023-08-06T01:23:19;7.57;;;3.88;;
74543;SDS011;63016;55.030;38.710;2023-08-06T01:28:19;9.57;;;4.30;;
74543;SDS011;63016;55.030;38.710;2023-08-06T01:30:53;7.00;;;3.90;;
74543;SDS011;63016;55.030;38.710;2023-08-06T01:35:52;10.65;;;4.70;;
74543;SDS011;63016;55.030;38.710;2023-08-06T01:38:19;7.22;;;4.15;;
74543;SDS011;63016;55.030;38.710;2023-08-06T01:40:45;6.55;;;4.68;;
74543;SDS011;63016;55.030;38.710;2023-08-06T01:43:10;7.40;;;4.47;;
74543;SDS011;63016;55.030;38.710;2023-08-06T01:45:36;5.75;;;4.88;;
74543;SDS011;63016;55.030;38.710;2023-08-06T01:48:02;6.43;;;4.45;;
74543;SDS011;63016;55.030;38.710;2023-08-06T01:50:27;6.35;;;4.38;;
74543;SDS011;63016;55.030;38.710;2023-08-06T01:52:53;6.60;;;4.43;;
74543;SDS011;63016;55.030;38.710;2023-08-06T01:55:18;5.25;;;4.15;;
74543;SDS011;63016;55.030;38.710;2023-08-06T01:57:44;7.63;;;4.47;;
74543;SDS011;63016;55.030;38.710;2023-08-06T02:00:10;7.78;;;4.72;;
74543;SDS011;63016;55.030;38.710;2023-08-06T02:02:36;9.20;;;4.55;;
74543;SDS011;63016;55.030;38.710;2023-08-06T02:05:01;8.85;;;5.22;;
74543;SDS011;63016;55.030;38.710;2023-08-06T02:07:27;8.02;;;5.15;;
74543;SDS011;63016;55.030;38.710;2023-08-06T02:09:52;7.03;;;5.18;;
74543;SDS011;63016;55.030;38.710;2023-08-06T02:12:18;8.60;;;4.68;;
74543;SDS011;63016;55.030;38.710;2023-08-06T02:14:43;5.68;;;4.70;;
74543;SDS011;63016;55.030;38.710;2023-08-06T02:17:08;7.20;;;4.97;;
74543;SDS011;63016;55.030;38.710;2023-08-06T02:19:34;7.55;;;5.18;;
74543;SDS011;63016;55.030;38.710;2023-08-06T02:21:59;6.82;;;4.68;;
74543;SDS011;63016;55.030;38.710;2023-08-06T02:24:25;7.22;;;4.97;;
74543;SDS011;63016;55.030;38.710;2023-08-06T02:26:50;6.68;;;4.78;;
74543;SDS011;63016;55.030;38.710;2023-08-06T02:29:17;7.13;;;5.03;;
74543;SDS011;63016;55.030;38.710;2023-08-06T02:31:43;5.82;;;4.97;;
74543;SDS011;63016;55.030;38.710;2023-08-06T02:34:08;6.88;;;5.13;;
74543;SDS011;63016;55.030;38.710;2023-08-06T02:36:34;7.60;;;4.97;;
74543;SDS011;63016;55.030;38.710;2023-08-06T02:38:59;6.70;;;5.07;;
74543;SDS011;63016;55.030;38.710;2023-08-06T02:41:24;7.40;;;5.82;;
74543;SDS011;63016;55.030;38.710;2023-08-06T02:43:50;13.40;;;6.47;;
74543;SDS011;63016;55.030;38.710;2023-08-06T02:46:16;8.02;;;5.70;;
74543;SDS011;63016;55.030;38.710;2023-08-06T02:48:41;11.82;;;6.45;;
74543;SDS011;63016;55.030;38.710;2023-08-06T02:51:06;9.10;;;6.38;;
74543;SDS011;63016;55.030;38.710;2023-08-06T02:53:32;8.25;;;6.65;;
74543;SDS011;63016;55.030;38.710;2023-08-06T02:55:57;12.52;;;6.55;;
74543;SDS011;63016;55.030;38.710;2023-08-06T02:58:24;10.80;;;6.78;;
74543;SDS011;63016;55.030;38.710;2023-08-06T03:01:05;10.50;;;7.22;;
74543;SDS011;63016;55.030;38.710;2023-08-06T03:03:32;10.20;;;7.00;;
74543;SDS011;63016;55.030;38.710;2023-08-06T03:05:58;10.73;;;6.68;;
74543;SDS011;63016;55.030;38.710;2023-08-06T03:08:24;9.88;;;7.18;;
74543;SDS011;63016;55.030;38.710;2023-08-06T03:10:50;9.88;;;7.55;;
74543;SDS011;63016;55.030;38.710;2023-08-06T03:13:16;10.02;;;7.00;;
74543;SDS011;63016;55.030;38.710;2023-08-06T03:15:43;11.82;;;7.88;;
74543;SDS011;63016;55.030;38.710;2023-08-06T03:18:09;11.02;;;7.38;;
74543;SDS011;63016;55.030;38.710;2023-08-06T03:20:34;8.75;;;7.65;;
74543;SDS011;63016;55.030;38.710;2023-08-06T03:23:00;16.65;;;7.97;;
74543;SDS011;63016;55.030;38.710;2023-08-06T03:25:25;12.50;;;7.68;;
74543;SDS011;63016;55.030;38.710;2023-08-06T03:27:51;13.80;;;8.50;;
74543;SDS011;63016;55.030;38.710;2023-08-06T03:30:16;20.92;;;11.02;;
74543;SDS011;63016;55.030;38.710;2023-08-06T03:32:41;18.30;;;11.27;;
74543;SDS011;63016;55.030;38.710;2023-08-06T03:35:07;18.05;;;11.85;;
74543;SDS011;63016;55.030;38.710;2023-08-06T03:37:33;20.73;;;11.70;;
74543;SDS011;63016;55.030;38.710;2023-08-06T03:39:58;15.43;;;10.18;;
74543;SDS011;63016;55.030;38.710;2023-08-06T03:42:24;16.60;;;10.30;;
74543;SDS011;63016;55.030;38.710;2023-08-06T03:44:49;16.17;;;10.68;;
74543;SDS011;63016;55.030;38.710;2023-08-06T03:47:15;19.30;;;10.63;;
74543;SDS011;63016;55.030;38.710;2023-08-06T03:49:40;17.92;;;11.07;;
74543;SDS011;63016;55.030;38.710;2023-08-06T03:52:09;23.05;;;11.38;;
74543;SDS011;63016;55.030;38.710;2023-08-06T03:54:34;19.88;;;11.43;;
74543;SDS011;63016;55.030;38.710;2023-08-06T03:56:59;15.48;;;10.20;;
74543;SDS011;63016;55.030;38.710;2023-08-06T03:59:25;16.38;;;10.15;;
74543;SDS011;63016;55.030;38.710;2023-08-06T04:01:50;15.95;;;10.05;;
74543;SDS011;63016;55.030;38.710;2023-08-06T04:04:16;19.42;;;9.75;;
74543;SDS011;63016;55.030;38.710;2023-08-06T04:06:41;15.32;;;10.00;;
74543;SDS011;63016;55.030;38.710;2023-08-06T04:09:07;14.50;;;9.93;;
74543;SDS011;63016;55.030;38.710;2023-08-06T04:11:32;15.65;;;9.45;;
74543;SDS011;63016;55.030;38.710;2023-08-06T04:13:58;16.73;;;9.20;;
74543;SDS011;63016;55.030;38.710;2023-08-06T04:16:23;20.35;;;9.30;;
74543;SDS011;63016;55.030;38.710;2023-08-06T04:18:51;18.10;;;9.77;;
74543;SDS011;63016;55.030;38.710;2023-08-06T04:21:18;18.25;;;10.43;;
74543;SDS011;63016;55.030;38.710;2023-08-06T04:23:43;12.90;;;8.77;;
74543;SDS011;63016;55.030;38.710;2023-08-06T04:26:08;16.30;;;9.70;;
74543;SDS011;63016;55.030;38.710;2023-08-06T04:28:34;16.58;;;9.27;;
74543;SDS011;63016;55.030;38.710;2023-08-06T04:31:00;18.35;;;9.73;;
74543;SDS011;63016;55.030;38.710;2023-08-06T04:33:25;12.98;;;9.15;;
74543;SDS011;63016;55.030;38.710;2023-08-06T04:35:54;16.92;;;8.40;;
74543;SDS011;63016;55.030;38.710;2023-08-06T04:38:23;12.55;;;7.70;;
74543;SDS011;63016;55.030;38.710;2023-08-06T04:40:50;15.52;;;8.10;;
74543;SDS011;63016;55.030;38.710;2023-08-06T04:43:16;11.90;;;7.78;;
74543;SDS011;63016;55.030;38.710;2023-08-06T04:45:51;15.13;;;8.10;;
74543;SDS011;63016;55.030;38.710;2023-08-06T04:48:18;16.92;;;7.40;;
74543;SDS011;63016;55.030;38.710;2023-08-06T04:50:44;13.82;;;7.38;;
74543;SDS011;63016;55.030;38.710;2023-08-06T04:53:10;13.73;;;7.43;;
74543;SDS011;63016;55.030;38.710;2023-08-06T04:55:36;11.18;;;7.03;;
74543;SDS011;63016;55.030;38.710;2023-08-06T04:58:02;14.18;;;7.75;;
74543;SDS011;63016;55.030;38.710;2023-08-06T05:00:27;17.08;;;7.15;;
74543;SDS011;63016;55.030;38.710;2023-08-06T05:02:53;11.88;;;7.53;;
74543;SDS011;63016;55.030;38.710;2023-08-06T05:05:18;19.20;;;7.35;;
74543;SDS011;63016;55.030;38.710;2023-08-06T05:07:45;13.23;;;7.10;;
74543;SDS011;63016;55.030;38.710;2023-08-06T05:10:13;10.70;;;6.47;;
74543;SDS011;63016;55.030;38.710;2023-08-06T05:12:38;12.70;;;6.30;;
74543;SDS011;63016;55.030;38.710;2023-08-06T05:15:04;10.85;;;6.38;;
74543;SDS011;63016;55.030;38.710;2023-08-06T05:17:30;13.15;;;6.90;;
74543;SDS011;63016;55.030;38.710;2023-08-06T05:19:55;11.70;;;6.53;;
74543;SDS011;63016;55.030;38.710;2023-08-06T05:22:21;10.05;;;6.00;;
74543;SDS011;63016;55.030;38.710;2023-08-06T05:24:46;7.00;;;5.60;;
74543;SDS011;63016;55.030;38.710;2023-08-06T05:27:12;10.68;;;6.00;;
74543;SDS011;63016;55.030;38.710;2023-08-06T05:29:37;9.32;;;5.72;;
74543;SDS011;63016;55.030;38.710;2023-08-06T05:32:03;9.13;;;5.18;;
74543;SDS011;63016;55.030;38.710;2023-08-06T05:34:28;9.73;;;5.35;;
74543;SDS011;63016;55.030;38.710;2023-08-06T05:36:54;9.52;;;5.30;;
74543;SDS011;63016;55.030;38.710;2023-08-06T05:39:19;7.65;;;4.90;;
74543;SDS011;63016;55.030;38.710;2023-08-06T05:41:45;11.75;;;5.32;;
74543;SDS011;63016;55.030;38.710;2023-08-06T05:44:10;8.82;;;4.90;;
74543;SDS011;63016;55.030;38.710;2023-08-06T05:46:36;11.35;;;5.53;;
74543;SDS011;63016;55.030;38.710;2023-08-06T05:49:01;12.43;;;5.32;;
74543;SDS011;63016;55.030;38.710;2023-08-06T05:51:27;9.70;;;4.97;;
74543;SDS011;63016;55.030;38.710;2023-08-06T05:53:53;8.63;;;4.50;;
74543;SDS011;63016;55.030;38.710;2023-08-06T05:56:19;6.00;;;4.18;;
74543;SDS011;63016;55.030;38.710;2023-08-06T05:58:44;8.75;;;4.10;;
74543;SDS011;63016;55.030;38.710;2023-08-06T06:01:11;9.48;;;4.55;;
74543;SDS011;63016;55.030;38.710;2023-08-06T06:03:37;9.50;;;4.20;;
74543;SDS011;63016;55.030;38.710;2023-08-06T06:06:02;8.63;;;3.60;;
74543;SDS011;63016;55.030;38.710;2023-08-06T06:08:28;4.15;;;3.67;;
74543;SDS011;63016;55.030;38.710;2023-08-06T06:10:54;5.45;;;3.30;;
74543;SDS011;63016;55.030;38.710;2023-08-06T06:13:19;8.98;;;3.83;;
74543;SDS011;63016;55.030;38.710;2023-08-06T06:15:46;6.25;;;3.45;;
74543;SDS011;63016;55.030;38.710;2023-08-06T06:18:12;6.40;;;3.70;;
74543;SDS011;63016;55.030;38.710;2023-08-06T06:20:38;8.23;;;4.57;;
74543;SDS011;63016;55.030;38.710;2023-08-06T06:23:03;6.90;;;3.78;;
74543;SDS011;63016;55.030;38.710;2023-08-06T06:25:29;10.05;;;3.80;;
74543;SDS011;63016;55.030;38.710;2023-08-06T06:27:54;3.95;;;3.38;;
74543;SDS011;63016;55.030;38.710;2023-08-06T06:30:20;5.35;;;3.05;;
74543;SDS011;63016;55.030;38.710;2023-08-06T06:32:45;5.70;;;4.28;;
74543;SDS011;63016;55.030;38.710;2023-08-06T06:35:12;6.10;;;3.58;;
74543;SDS011;63016;55.030;38.710;2023-08-06T06:37:37;9.50;;;5.07;;
74543;SDS011;63016;55.030;38.710;2023-08-06T06:40:03;5.10;;;4.15;;
74543;SDS011;63016;55.030;38.710;2023-08-06T06:42:29;9.07;;;5.35;;
74543;SDS011;63016;55.030;38.710;2023-08-06T06:44:54;5.90;;;3.28;;
74543;SDS011;63016;55.030;38.710;2023-08-06T06:47:20;5.03;;;3.30;;
74543;SDS011;63016;55.030;38.710;2023-08-06T06:49:46;7.82;;;4.45;;
74543;SDS011;63016;55.030;38.710;2023-08-06T06:52:11;8.52;;;3.90;;
74543;SDS011;63016;55.030;38.710;2023-08-06T06:54:36;7.35;;;3.42;;
74543;SDS011;63016;55.030;38.710;2023-08-06T06:57:02;9.93;;;3.05;;
74543;SDS011;63016;55.030;38.710;2023-08-06T06:59:28;9.63;;;3.13;;
74543;SDS011;63016;55.030;38.710;2023-08-06T07:01:53;6.38;;;3.20;;
74543;SDS011;63016;55.030;38.710;2023-08-06T07:04:19;3.55;;;3.20;;
74543;SDS011;63016;55.030;38.710;2023-08-06T07:06:44;5.70;;;3.25;;
74543;SDS011;63016;55.030;38.710;2023-08-06T07:09:10;3.22;;;2.88;;
74543;SDS011;63016;55.030;38.710;2023-08-06T07:11:35;5.53;;;2.92;;
74543;SDS011;63016;55.030;38.710;2023-08-06T07:14:01;4.90;;;3.03;;
74543;SDS011;63016;55.030;38.710;2023-08-06T07:16:26;8.13;;;3.03;;
74543;SDS011;63016;55.030;38.710;2023-08-06T07:18:53;6.00;;;3.30;;
74543;SDS011;63016;55.030;38.710;2023-08-06T07:21:19;4.03;;;3.22;;
74543;SDS011;63016;55.030;38.710;2023-08-06T07:23:45;5.32;;;3.20;;
74543;SDS011;63016;55.030;38.710;2023-08-06T07:26:10;5.38;;;2.70;;
74543;SDS011;63016;55.030;38.710;2023-08-06T07:28:36;5.75;;;3.30;;
74543;SDS011;63016;55.030;38.710;2023-08-06T07:31:02;6.45;;;3.08;;
74543;SDS011;63016;55.030;38.710;2023-08-06T07:33:28;6.03;;;3.08;;
74543;SDS011;63016;55.030;38.710;2023-08-06T07:35:54;4.07;;;2.88;;
74543;SDS011;63016;55.030;38.710;2023-08-06T07:38:19;10.90;;;2.70;;
74543;SDS011;63016;55.030;38.710;2023-08-06T07:40:46;4.90;;;3.00;;
74543;SDS011;63016;55.030;38.710;2023-08-06T07:43:11;4.60;;;2.95;;
74543;SDS011;63016;55.030;38.710;2023-08-06T07:45:37;7.78;;;3.22;;
74543;SDS011;63016;55.030;38.710;2023-08-06T07:48:03;5.18;;;3.22;;
74543;SDS011;63016;55.030;38.710;2023-08-06T07:50:29;4.50;;;3.05;;
74543;SDS011;63016;55.030;38.710;2023-08-06T07:52:55;8.20;;;3.20;;
74543;SDS011;63016;55.030;38.710;2023-08-06T07:55:21;4.80;;;3.13;;
74543;SDS011;63016;55.030;38.710;2023-08-06T07:57:46;5.88;;;3.00;;
74543;SDS011;63016;55.030;38.710;2023-08-06T08:00:12;6.80;;;2.70;;
74543;SDS011;63016;55.030;38.710;2023-08-06T08:02:37;5.40;;;2.95;;
74543;SDS011;63016;55.030;38.710;2023-08-06T08:05:04;5.07;;;2.70;;
74543;SDS011;63016;55.030;38.710;2023-08-06T08:07:32;8.93;;;3.03;;
74543;SDS011;63016;55.030;38.710;2023-08-06T08:09:57;5.55;;;2.97;;
74543;SDS011;63016;55.030;38.710;2023-08-06T08:12:23;5.85;;;2.78;;
74543;SDS011;63016;55.030;38.710;2023-08-06T08:14:49;8.45;;;3.30;;
74543;SDS011;63016;55.030;38.710;2023-08-06T08:17:17;4.80;;;3.20;;
74543;SDS011;63016;55.030;38.710;2023-08-06T08:19:43;7.78;;;2.78;;
74543;SDS011;63016;55.030;38.710;2023-08-06T08:22:09;9.25;;;3.50;;
74543;SDS011;63016;55.030;38.710;2023-08-06T08:24:34;5.28;;;3.33;;
74543;SDS011;63016;55.030;38.710;2023-08-06T08:27:00;6.35;;;3.10;;
74543;SDS011;63016;55.030;38.710;2023-08-06T08:29:25;5.95;;;3.05;;
74543;SDS011;63016;55.030;38.710;2023-08-06T08:31:54;5.38;;;3.17;;
74543;SDS011;63016;55.030;38.710;2023-08-06T08:34:19;6.22;;;3.22;;
74543;SDS011;63016;55.030;38.710;2023-08-06T08:36:46;7.55;;;3.65;;
74543;SDS011;63016;55.030;38.710;2023-08-06T08:39:12;10.80;;;3.88;;
74543;SDS011;63016;55.030;38.710;2023-08-06T08:41:39;7.68;;;3.58;;
74543;SDS011;63016;55.030;38.710;2023-08-06T08:44:08;16.45;;;4.45;;
74543;SDS011;63016;55.030;38.710;2023-08-06T08:46:37;6.82;;;3.60;;
74543;SDS011;63016;55.030;38.710;2023-08-06T08:49:05;15.65;;;3.85;;
74543;SDS011;63016;55.030;38.710;2023-08-06T08:51:32;13.65;;;4.15;;
74543;SDS011;63016;55.030;38.710;2023-08-06T08:53:59;12.15;;;4.03;;
74543;SDS011;63016;55.030;38.710;2023-08-06T08:56:27;10.10;;;4.10;;
74543;SDS011;63016;55.030;38.710;2023-08-06T08:58:53;13.35;;;3.90;;
74543;SDS011;63016;55.030;38.710;2023-08-06T09:01:20;10.13;;;3.92;;
74543;SDS011;63016;55.030;38.710;2023-08-06T09:03:47;10.25;;;3.85;;
74543;SDS011;63016;55.030;38.710;2023-08-06T09:06:13;7.38;;;3.85;;
74543;SDS011;63016;55.030;38.710;2023-08-06T09:08:47;10.27;;;3.22;;
74543;SDS011;63016;55.030;38.710;2023-08-06T09:11:36;6.10;;;3.17;;
74543;SDS011;63016;55.030;38.710;2023-08-06T09:14:07;11.45;;;3.83;;
74543;SDS011;63016;55.030;38.710;2023-08-06T09:16:35;5.50;;;2.92;;
74543;SDS011;63016;55.030;38.710;2023-08-06T09:19:11;6.30;;;2.97;;
74543;SDS011;63016;55.030;38.710;2023-08-06T09:21:40;7.88;;;3.33;;
74543;SDS011;63016;55.030;38.710;2023-08-06T09:24:13;4.85;;;2.88;;
74543;SDS011;63016;55.030;38.710;2023-08-06T09:26:40;6.72;;;2.80;;
74543;SDS011;63016;55.030;38.710;2023-08-06T09:29:07;5.68;;;2.97;;
74543;SDS011;63016;55.030;38.710;2023-08-06T09:31:55;6.13;;;3.28;;
74543;SDS011;63016;55.030;38.710;2023-08-06T09:34:22;6.25;;;2.88;;
74543;SDS011;63016;55.030;38.710;2023-08-06T09:36:50;5.28;;;2.70;;
74543;SDS011;63016;55.030;38.710;2023-08-06T09:39:18;5.40;;;2.53;;
74543;SDS011;63016;55.030;38.710;2023-08-06T09:41:44;6.20;;;3.03;;
74543;SDS011;63016;55.030;38.710;2023-08-06T09:44:15;5.68;;;2.90;;
74543;SDS011;63016;55.030;38.710;2023-08-06T09:46:47;6.25;;;3.03;;
74543;SDS011;63016;55.030;38.710;2023-08-06T09:49:15;7.75;;;3.20;;
74543;SDS011;63016;55.030;38.710;2023-08-06T09:51:41;5.25;;;2.80;;
74543;SDS011;63016;55.030;38.710;2023-08-06T09:54:07;4.00;;;2.80;;
74543;SDS011;63016;55.030;38.710;2023-08-06T09:56:37;5.63;;;2.95;;
74543;SDS011;63016;55.030;38.710;2023-08-06T09:59:06;4.80;;;2.75;;
74543;SDS011;63016;55.030;38.710;2023-08-06T10:01:32;7.20;;;2.80;;
74543;SDS011;63016;55.030;38.710;2023-08-06T10:04:01;4.60;;;2.70;;
74543;SDS011;63016;55.030;38.710;2023-08-06T10:06:29;8.80;;;3.15;;
74543;SDS011;63016;55.030;38.710;2023-08-06T10:08:58;9.27;;;3.00;;
74543;SDS011;63016;55.030;38.710;2023-08-06T10:11:24;8.25;;;2.88;;
74543;SDS011;63016;55.030;38.710;2023-08-06T10:13:54;7.88;;;2.78;;
74543;SDS011;63016;55.030;38.710;2023-08-06T10:16:23;9.18;;;2.65;;
74543;SDS011;63016;55.030;38.710;2023-08-06T10:18:50;5.13;;;2.75;;
74543;SDS011;63016;55.030;38.710;2023-08-06T10:21:17;3.72;;;2.53;;
74543;SDS011;63016;55.030;38.710;2023-08-06T10:23:42;6.82;;;3.13;;
74543;SDS011;63016;55.030;38.710;2023-08-06T10:26:08;3.60;;;2.60;;
74543;SDS011;63016;55.030;38.710;2023-08-06T10:28:34;4.93;;;3.20;;
74543;SDS011;63016;55.030;38.710;2023-08-06T10:31:03;4.75;;;2.78;;
74543;SDS011;63016;55.030;38.710;2023-08-06T10:33:42;6.30;;;3.05;;
74543;SDS011;63016;55.030;38.710;2023-08-06T10:36:11;5.03;;;3.13;;
74543;SDS011;63016;55.030;38.710;2023-08-06T10:38:46;6.90;;;3.03;;
74543;SDS011;63016;55.030;38.710;2023-08-06T10:41:23;5.68;;;2.88;;
74543;SDS011;63016;55.030;38.710;2023-08-06T10:44:04;4.90;;;3.15;;
74543;SDS011;63016;55.030;38.710;2023-08-06T10:46:32;5.78;;;3.10;;
74543;SDS011;63016;55.030;38.710;2023-08-06T10:48:57;3.35;;;2.42;;
74543;SDS011;63016;55.030;38.710;2023-08-06T10:51:23;6.28;;;2.85;;
74543;SDS011;63016;55.030;38.710;2023-08-06T10:53:49;5.40;;;2.83;;
74543;SDS011;63016;55.030;38.710;2023-08-06T10:56:16;6.45;;;2.85;;
74543;SDS011;63016;55.030;38.710;2023-08-06T10:58:47;5.63;;;3.03;;
74543;SDS011;63016;55.030;38.710;2023-08-06T11:01:14;4.40;;;3.00;;
74543;SDS011;63016;55.030;38.710;2023-08-06T11:03:41;4.53;;;2.65;;
74543;SDS011;63016;55.030;38.710;2023-08-06T11:06:10;3.33;;;2.97;;
74543;SDS011;63016;55.030;38.710;2023-08-06T11:08:37;5.78;;;2.42;;
74543;SDS011;63016;55.030;38.710;2023-08-06T11:13:42;2.92;;;2.60;;
74543;SDS011;63016;55.030;38.710;2023-08-06T11:16:11;5.00;;;2.83;;
74543;SDS011;63016;55.030;38.710;2023-08-06T11:18:37;4.70;;;2.80;;
74543;SDS011;63016;55.030;38.710;2023-08-06T11:21:03;6.00;;;2.60;;
74543;SDS011;63016;55.030;38.710;2023-08-06T11:23:29;5.50;;;2.53;;
74543;SDS011;63016;55.030;38.710;2023-08-06T11:25:55;4.78;;;2.88;;
74543;SDS011;63016;55.030;38.710;2023-08-06T11:28:22;6.72;;;2.67;;
74543;SDS011;63016;55.030;38.710;2023-08-06T11:30:48;4.97;;;2.33;;
74543;SDS011;63016;55.030;38.710;2023-08-06T11:33:14;5.30;;;2.75;;
74543;SDS011;63016;55.030;38.710;2023-08-06T11:35:39;4.38;;;2.60;;
74543;SDS011;63016;55.030;38.710;2023-08-06T11:38:05;2.67;;;2.47;;
74543;SDS011;63016;55.030;38.710;2023-08-06T11:40:32;4.50;;;2.50;;
74543;SDS011;63016;55.030;38.710;2023-08-06T11:42:58;4.55;;;2.65;;
74543;SDS011;63016;55.030;38.710;2023-08-06T11:45:24;7.47;;;2.42;;
74543;SDS011;63016;55.030;38.710;2023-08-06T11:47:51;4.53;;;2.60;;
74543;SDS011;63016;55.030;38.710;2023-08-06T11:50:25;3.05;;;2.20;;
74543;SDS011;63016;55.030;38.710;2023-08-06T11:52:58;4.25;;;2.30;;
74543;SDS011;63016;55.030;38.710;2023-08-06T11:55:26;2.95;;;2.00;;
74543;SDS011;63016;55.030;38.710;2023-08-06T11:57:57;7.78;;;2.88;;
74543;SDS011;63016;55.030;38.710;2023-08-06T12:00:23;5.00;;;2.35;;
74543;SDS011;63016;55.030;38.710;2023-08-06T12:02:51;4.55;;;2.30;;
74543;SDS011;63016;55.030;38.710;2023-08-06T12:05:20;2.83;;;2.47;;
74543;SDS011;63016;55.030;38.710;2023-08-06T12:07:49;2.45;;;2.20;;
74543;SDS011;63016;55.030;38.710;2023-08-06T12:10:16;5.15;;;2.47;;
74543;SDS011;63016;55.030;38.710;2023-08-06T12:12:44;2.70;;;2.50;;
74543;SDS011;63016;55.030;38.710;2023-08-06T12:15:10;7.88;;;2.60;;
74543;SDS011;63016;55.030;38.710;2023-08-06T12:17:36;4.45;;;2.40;;
74543;SDS011;63016;55.030;38.710;2023-08-06T12:20:03;6.60;;;2.50;;
74543;SDS011;63016;55.030;38.710;2023-08-06T12:22:30;10.85;;;2.65;;
74543;SDS011;63016;55.030;38.710;2023-08-06T12:25:03;3.47;;;2.45;;
74543;SDS011;63016;55.030;38.710;2023-08-06T12:27:43;4.18;;;2.70;;
74543;SDS011;63016;55.030;38.710;2023-08-06T12:30:10;3.13;;;2.40;;
74543;SDS011;63016;55.030;38.710;2023-08-06T12:32:37;3.25;;;2.50;;
74543;SDS011;63016;55.030;38.710;2023-08-06T12:35:03;5.60;;;2.22;;
74543;SDS011;63016;55.030;38.710;2023-08-06T12:37:30;4.22;;;2.47;;
74543;SDS011;63016;55.030;38.710;2023-08-06T12:39:55;7.13;;;2.67;;
74543;SDS011;63016;55.030;38.710;2023-08-06T12:42:21;3.85;;;2.45;;
74543;SDS011;63016;55.030;38.710;2023-08-06T12:44:48;5.80;;;2.60;;
74543;SDS011;63016;55.030;38.710;2023-08-06T12:47:14;2.70;;;2.30;;
74543;SDS011;63016;55.030;38.710;2023-08-06T12:49:41;6.82;;;2.75;;
74543;SDS011;63016;55.030;38.710;2023-08-06T12:52:06;5.90;;;2.45;;
74543;SDS011;63016;55.030;38.710;2023-08-06T12:54:34;10.25;;;2.42;;
74543;SDS011;63016;55.030;38.710;2023-08-06T12:57:02;5.03;;;2.42;;
74543;SDS011;63016;55.030;38.710;2023-08-06T12:59:28;6.95;;;2.58;;
74543;SDS011;63016;55.030;38.710;2023-08-06T13:01:54;4.20;;;2.60;;
74543;SDS011;63016;55.030;38.710;2023-08-06T13:04:20;2.88;;;2.30;;
74543;SDS011;63016;55.030;38.710;2023-08-06T13:06:45;3.33;;;2.80;;
74543;SDS011;63016;55.030;38.710;2023-08-06T13:09:11;3.10;;;2.63;;
74543;SDS011;63016;55.030;38.710;2023-08-06T13:11:37;3.78;;;2.83;;
74543;SDS011;63016;55.030;38.710;2023-08-06T13:14:05;8.05;;;2.50;;
74543;SDS011;63016;55.030;38.710;2023-08-06T13:16:35;3.80;;;2.90;;
74543;SDS011;63016;55.030;38.710;2023-08-06T13:19:01;9.00;;;3.28;;
74543;SDS011;63016;55.030;38.710;2023-08-06T13:21:32;5.45;;;3.10;;
74543;SDS011;63016;55.030;38.710;2023-08-06T13:23:59;6.75;;;2.85;;
74543;SDS011;63016;55.030;38.710;2023-08-06T13:26:26;5.07;;;2.50;;
74543;SDS011;63016;55.030;38.710;2023-08-06T13:28:53;4.18;;;2.67;;
74543;SDS011;63016;55.030;38.710;2023-08-06T13:31:18;3.83;;;3.00;;
74543;SDS011;63016;55.030;38.710;2023-08-06T13:33:44;5.15;;;2.83;;
74543;SDS011;63016;55.030;38.710;2023-08-06T13:36:09;3.92;;;2.85;;
74543;SDS011;63016;55.030;38.710;2023-08-06T13:38:36;6.18;;;2.50;;
74543;SDS011;63016;55.030;38.710;2023-08-06T13:41:03;2.80;;;2.50;;
74543;SDS011;63016;55.030;38.710;2023-08-06T13:43:28;4.47;;;2.67;;
74543;SDS011;63016;55.030;38.710;2023-08-06T13:45:54;3.20;;;2.90;;
74543;SDS011;63016;55.030;38.710;2023-08-06T13:48:20;6.25;;;3.15;;
74543;SDS011;63016;55.030;38.710;2023-08-06T13:50:45;4.78;;;2.83;;
74543;SDS011;63016;55.030;38.710;2023-08-06T13:53:11;2.70;;;2.45;;
74543;SDS011;63016;55.030;38.710;2023-08-06T13:55:36;3.60;;;2.60;;
74543;SDS011;63016;55.030;38.710;2023-08-06T13:58:02;4.57;;;2.80;;
74543;SDS011;63016;55.030;38.710;2023-08-06T14:00:27;7.28;;;2.70;;
74543;SDS011;63016;55.030;38.710;2023-08-06T14:02:53;5.40;;;2.97;;
74543;SDS011;63016;55.030;38.710;2023-08-06T14:05:18;2.80;;;2.33;;
74543;SDS011;63016;55.030;38.710;2023-08-06T14:07:44;5.15;;;2.50;;
74543;SDS011;63016;55.030;38.710;2023-08-06T14:10:09;3.75;;;2.30;;
74543;SDS011;63016;55.030;38.710;2023-08-06T14:12:35;5.35;;;2.38;;
74543;SDS011;63016;55.030;38.710;2023-08-06T14:15:01;3.85;;;2.90;;
74543;SDS011;63016;55.030;38.710;2023-08-06T14:17:28;4.30;;;2.70;;
74543;SDS011;63016;55.030;38.710;2023-08-06T14:22:56;3.67;;;2.47;;
74543;SDS011;63016;55.030;38.710;2023-08-06T14:25:22;3.08;;;2.60;;
74543;SDS011;63016;55.030;38.710;2023-08-06T14:27:50;5.88;;;2.50;;
74543;SDS011;63016;55.030;38.710;2023-08-06T14:30:19;6.55;;;2.70;;
74543;SDS011;63016;55.030;38.710;2023-08-06T14:32:45;6.07;;;2.67;;
74543;SDS011;63016;55.030;38.710;2023-08-06T14:35:10;3.60;;;2.65;;
74543;SDS011;63016;55.030;38.710;2023-08-06T14:37:36;6.13;;;2.55;;
74543;SDS011;63016;55.030;38.710;2023-08-06T14:40:01;3.55;;;2.40;;
74543;SDS011;63016;55.030;38.710;2023-08-06T14:42:27;5.57;;;2.30;;
74543;SDS011;63016;55.030;38.710;2023-08-06T14:44:53;7.10;;;2.85;;